createdAt,value
2018-09-08T00:01:58.355Z,100643.16
2018-09-08T00:04:25.320Z,100648.07
2018-09-08T00:06:57.912Z,100641.66
2018-09-08T00:09:24.863Z,100643.30
2018-09-08T00:11:52.751Z,100642.16
2018-09-08T00:14:19.690Z,100643.95
2018-09-08T00:16:54.395Z,100652.95
2018-09-08T00:19:27.188Z,100657.22
2018-09-08T00:21:59.851Z,100655.91
2018-09-08T00:24:32.568Z,100658.55
2018-09-08T00:26:59.042Z,100661.34
2018-09-08T00:29:30.603Z,100662.78
2018-09-08T00:31:58.599Z,100669.03
2018-09-08T00:34:29.056Z,100664.94
2018-09-08T00:36:56.735Z,100666.75
2018-09-08T00:39:24.727Z,100668.72
2018-09-08T00:41:51.664Z,100675.26
2018-09-08T00:44:18.669Z,100677.33
2018-09-08T00:46:47.246Z,100685.38
2018-09-08T00:49:14.249Z,100687.50
2018-09-08T00:51:41.239Z,100691.95
2018-09-08T00:54:08.185Z,100687.84
2018-09-08T00:56:35.152Z,100681.14
2018-09-08T00:59:02.598Z,100682.92
2018-09-08T01:01:29.787Z,100684.86
2018-09-08T01:03:56.858Z,100686.98
2018-09-08T01:06:23.960Z,100692.22
2018-09-08T01:08:50.891Z,100694.55
2018-09-08T01:11:17.807Z,100696.64
2018-09-08T01:13:45.795Z,100694.67
2018-09-08T01:16:12.767Z,100688.45
2018-09-08T01:18:40.024Z,100690.71
2018-09-08T01:21:08.701Z,100697.08
2018-09-08T01:23:35.798Z,100699.70
2018-09-08T01:26:03.022Z,100696.27
2018-09-08T01:28:30.733Z,100698.73
2018-09-08T01:30:57.728Z,100709.48
2018-09-08T01:33:24.829Z,100709.84
2018-09-08T01:35:51.792Z,100711.16
2018-09-08T01:38:18.754Z,100707.55
2018-09-08T01:40:45.703Z,100710.17
2018-09-08T01:43:12.675Z,100708.98
2018-09-08T01:45:39.687Z,100719.45
2018-09-08T01:48:06.679Z,100720.59
2018-09-08T01:50:34.279Z,100718.70
2018-09-08T01:53:01.251Z,100718.36
2018-09-08T01:55:28.147Z,100720.75
2018-09-08T01:57:55.133Z,100719.42
2018-09-08T02:00:22.826Z,100723.91
2018-09-08T02:02:50.811Z,100721.27
2018-09-08T02:05:19.836Z,100723.38
2018-09-08T02:07:46.707Z,100723.53
2018-09-08T02:10:13.703Z,100722.83
2018-09-08T02:12:40.681Z,100723.19
2018-09-08T02:15:07.622Z,100719.86
2018-09-08T02:17:34.585Z,100720.12
2018-09-08T02:20:01.527Z,100720.27
2018-09-08T02:22:28.492Z,100718.25
2018-09-08T02:24:57.292Z,100708.99
2018-09-08T02:27:24.252Z,100711.91
2018-09-08T02:29:51.175Z,100715.89
2018-09-08T02:32:18.771Z,100715.77
2018-09-08T02:34:45.751Z,100726.55
2018-09-08T02:37:15.717Z,100719.88
2018-09-08T02:39:42.619Z,100727.05
2018-09-08T02:42:09.580Z,100724.93
2018-09-08T02:44:36.615Z,100722.66
2018-09-08T02:47:04.383Z,100733.84
2018-09-08T02:50:02.414Z,100725.39
2018-09-08T02:52:29.576Z,100725.12
2018-09-08T02:54:55.811Z,100725.63
2018-09-08T02:57:22.052Z,100727.03
2018-09-08T02:59:48.223Z,100723.81
2018-09-08T03:02:14.353Z,100723.91
2018-09-08T03:04:40.484Z,100725.70
2018-09-08T03:07:13.651Z,100722.12
2018-09-08T03:09:41.755Z,100729.75
2018-09-08T03:12:08.523Z,100730.45
2018-09-08T03:14:34.751Z,100734.73
2018-09-08T03:17:01.514Z,100737.02
2018-09-08T03:19:27.795Z,100735.91
2018-09-08T03:21:55.021Z,100732.92
2018-09-08T03:24:24.103Z,100736.62
2018-09-08T03:26:50.259Z,100738.41
2018-09-08T03:29:16.511Z,100738.85
2018-09-08T03:31:42.738Z,100731.89
2018-09-08T03:34:09.141Z,100738.22
2018-09-08T03:36:37.106Z,100735.23
2018-09-08T03:39:03.991Z,100736.17
2018-09-08T03:41:31.012Z,100719.40
2018-09-08T03:43:57.128Z,100728.84
2018-09-08T03:46:24.147Z,100722.19
2018-09-08T03:48:50.324Z,100722.56
2018-09-08T03:51:16.464Z,100720.09
2018-09-08T03:53:44.547Z,100721.52
2018-09-08T03:56:11.552Z,100728.04
2018-09-08T03:58:37.760Z,100730.02
2018-09-08T04:01:03.885Z,100731.70
2018-09-08T04:03:30.887Z,100732.47
2018-09-08T04:05:59.412Z,100733.90
2018-09-08T04:08:26.343Z,100736.62
2018-09-08T04:10:53.330Z,100736.16
2018-09-08T04:13:20.288Z,100742.57
2018-09-08T04:15:47.259Z,100741.66
2018-09-08T04:18:14.670Z,100748.59
2018-09-08T04:20:41.608Z,100749.35
2018-09-08T04:23:08.536Z,100746.94
2018-09-08T04:25:35.482Z,100746.77
2018-09-08T04:28:03.327Z,100747.73
2018-09-08T04:30:30.840Z,100751.91
2018-09-08T04:32:57.819Z,100750.60
2018-09-08T04:35:25.043Z,100756.50
2018-09-08T04:37:52.039Z,100755.92
2018-09-08T04:40:18.947Z,100758.96
2018-09-08T04:42:46.853Z,100761.89
2018-09-08T04:45:14.058Z,100757.38
2018-09-08T04:47:40.992Z,100762.91
2018-09-08T04:50:07.992Z,100758.06
2018-09-08T04:52:34.950Z,100755.86
2018-09-08T04:55:01.942Z,100762.22
2018-09-08T04:57:28.914Z,100769.01
2018-09-08T04:59:55.868Z,100771.31
2018-09-08T05:02:22.940Z,100767.78
2018-09-08T05:04:49.859Z,100774.78
2018-09-08T05:07:16.912Z,100772.03
2018-09-08T05:09:43.919Z,100777.05
2018-09-08T05:12:10.847Z,100777.41
2018-09-08T05:14:37.803Z,100780.89
2018-09-08T05:17:04.801Z,100780.75
2018-09-08T05:19:31.719Z,100780.89
2018-09-08T05:21:58.687Z,100777.85
2018-09-08T05:24:25.631Z,100784.36
2018-09-08T05:26:53.645Z,100778.63
2018-09-08T05:29:21.862Z,100783.83
2018-09-08T05:31:48.867Z,100791.88
2018-09-08T05:34:15.785Z,100790.96
2018-09-08T05:36:42.776Z,100794.81
2018-09-08T05:39:09.731Z,100795.22
2018-09-08T05:41:36.718Z,100793.03
2018-09-08T05:44:03.688Z,100799.52
2018-09-08T05:46:30.667Z,100792.69
2018-09-08T05:48:57.710Z,100793.98
2018-09-08T05:51:24.627Z,100793.13
2018-09-08T05:53:51.584Z,100796.05
2018-09-08T05:56:18.522Z,100800.48
2018-09-08T05:58:46.419Z,100798.39
2018-09-08T06:01:13.370Z,100805.98
2018-09-08T06:03:40.947Z,100804.52
2018-09-08T06:06:07.906Z,100803.52
2018-09-08T06:08:34.877Z,100807.44
2018-09-08T06:11:01.819Z,100804.17
2018-09-08T06:13:28.773Z,100809.39
2018-09-08T06:15:55.703Z,100806.75
2018-09-08T06:18:24.485Z,100807.04
2018-09-08T06:20:52.442Z,100809.84
2018-09-08T06:23:19.364Z,100816.23
2018-09-08T06:25:46.327Z,100814.53
2018-09-08T06:28:13.284Z,100817.22
2018-09-08T06:30:40.232Z,100816.50
2018-09-08T06:33:07.924Z,100815.60
2018-09-08T06:35:34.900Z,100814.17
2018-09-08T06:38:02.454Z,100824.31
2018-09-08T06:40:29.394Z,100825.69
2018-09-08T06:42:56.383Z,100822.31
2018-09-08T06:45:23.327Z,100825.70
2018-09-08T06:47:50.263Z,100826.03
2018-09-08T06:50:17.220Z,100825.16
2018-09-08T06:52:44.111Z,100822.31
2018-09-08T06:55:11.047Z,100821.06
2018-09-08T06:57:38.008Z,100831.58
2018-09-08T07:00:05.733Z,100827.50
2018-09-08T07:02:32.639Z,100836.52
2018-09-08T07:04:59.599Z,100837.84
2018-09-08T07:07:27.479Z,100836.53
2018-09-08T07:09:54.467Z,100841.45
2018-09-08T07:12:21.398Z,100834.90
2018-09-08T07:14:48.363Z,100838.48
2018-09-08T07:17:15.319Z,100838.31
2018-09-08T07:19:42.272Z,100839.78
2018-09-08T07:22:09.218Z,100843.53
2018-09-08T07:24:37.005Z,100845.98
2018-09-08T07:27:04.489Z,100844.48
2018-09-08T07:29:31.610Z,100845.62
2018-09-08T07:31:59.673Z,100837.89
2018-09-08T07:34:26.590Z,100847.36
2018-09-08T07:36:53.542Z,100846.33
2018-09-08T07:39:20.490Z,100848.19
2018-09-08T07:41:47.447Z,100849.45
2018-09-08T07:44:14.423Z,100852.47
2018-09-08T07:46:41.386Z,100853.98
2018-09-08T07:49:08.307Z,100853.02
2018-09-08T07:51:35.399Z,100854.95
2018-09-08T07:54:02.427Z,100858.62
2018-09-08T07:56:29.276Z,100860.61
2018-09-08T07:58:56.441Z,100863.52
2018-09-08T08:01:24.075Z,100858.28
2018-09-08T08:03:51.104Z,100851.16
2018-09-08T08:06:18.015Z,100859.42
2018-09-08T08:08:45.422Z,100856.43
2018-09-08T08:11:12.371Z,100853.91
2018-09-08T08:13:39.357Z,100845.33
2018-09-08T08:16:06.841Z,100847.58
2018-09-08T08:18:34.015Z,100852.52
2018-09-08T08:21:01.546Z,100859.72
2018-09-08T08:23:28.684Z,100849.48
2018-09-08T08:25:55.663Z,100853.80
2018-09-08T08:28:22.617Z,100852.70
2018-09-08T08:30:49.562Z,100847.48
2018-09-08T08:33:16.479Z,100855.94
2018-09-08T08:35:43.483Z,100842.27
2018-09-08T08:38:12.068Z,100842.45
2018-09-08T08:40:40.029Z,100836.83
2018-09-08T08:43:07.547Z,100839.75
2018-09-08T08:45:34.497Z,100834.51
2018-09-08T08:48:01.457Z,100834.89
2018-09-08T08:50:40.092Z,100828.21
2018-09-08T08:53:18.852Z,100835.43
2018-09-08T08:55:45.854Z,100825.77
2018-09-08T08:58:13.023Z,100823.41
2018-09-08T09:00:40.415Z,100820.39
2018-09-08T09:03:07.359Z,100820.48
2018-09-08T09:05:34.316Z,100817.33
2018-09-08T09:08:01.987Z,100817.65
2018-09-08T09:10:28.967Z,100821.59
2018-09-08T09:12:55.964Z,100820.27
2018-09-08T09:15:25.306Z,100808.30
2018-09-08T09:17:51.871Z,100805.06
2018-09-08T09:20:31.571Z,100813.64
2018-09-08T09:23:16.985Z,100807.39
2018-09-08T09:25:43.567Z,100806.60
2018-09-08T09:28:10.527Z,100801.62
2018-09-08T09:30:37.491Z,100804.55
2018-09-08T09:33:04.432Z,100812.17
2018-09-08T09:35:31.392Z,100810.81
2018-09-08T09:37:58.367Z,100814.62
2018-09-08T09:40:25.315Z,100808.91
2018-09-08T09:42:52.267Z,100805.80
2018-09-08T09:45:19.272Z,100802.49
2018-09-08T09:47:47.088Z,100795.44
2018-09-08T09:50:14.066Z,100788.73
2018-09-08T09:52:41.398Z,100788.30
2018-09-08T09:55:08.567Z,100792.56
2018-09-08T09:57:35.611Z,100808.16
2018-09-08T10:00:02.629Z,100800.72
2018-09-08T10:02:33.432Z,100797.10
2018-09-08T10:05:00.848Z,100789.11
2018-09-08T10:07:27.799Z,100785.10
2018-09-08T10:09:54.739Z,100778.27
2018-09-08T10:12:22.513Z,100791.30
2018-09-08T10:14:49.522Z,100785.05
2018-09-08T10:17:16.668Z,100782.86
2018-09-08T10:19:45.307Z,100781.95
2018-09-08T10:22:12.286Z,100784.52
2018-09-08T10:24:39.235Z,100784.00
2018-09-08T10:27:06.199Z,100777.79
2018-09-08T10:29:33.357Z,100775.93
2018-09-08T10:32:00.201Z,100777.70
2018-09-08T10:34:27.171Z,100773.67
2018-09-08T10:36:54.118Z,100765.72
2018-09-08T10:39:21.095Z,100766.53
2018-09-08T10:41:48.036Z,100765.95
2018-09-08T10:44:14.995Z,100769.53
2018-09-08T10:46:41.956Z,100761.15
2018-09-08T10:49:08.936Z,100758.77
2018-09-08T10:52:14.932Z,100760.12
2018-09-08T10:54:41.839Z,100777.06
2018-09-08T10:57:08.832Z,100773.09
2018-09-08T10:59:36.605Z,100772.73
2018-09-08T11:02:03.687Z,100767.69
2018-09-08T11:04:31.139Z,100757.00
2018-09-08T11:06:58.087Z,100749.13
2018-09-08T11:09:25.032Z,100756.27
2018-09-08T11:11:52.004Z,100743.19
2018-09-08T11:14:18.940Z,100744.77
2018-09-08T11:16:45.906Z,100742.49
2018-09-08T11:19:12.927Z,100736.30
2018-09-08T11:21:39.807Z,100730.30
2018-09-08T11:24:06.823Z,100742.41
2018-09-08T11:26:33.756Z,100739.86
2018-09-08T11:29:00.811Z,100744.13
2018-09-08T11:31:28.567Z,100736.70
2018-09-08T11:33:55.531Z,100732.98
2018-09-08T11:36:22.536Z,100721.60
2018-09-08T11:38:49.479Z,100718.91
2018-09-08T11:41:16.422Z,100727.69
2018-09-08T11:43:43.339Z,100712.74
2018-09-08T11:46:10.303Z,100722.23
2018-09-08T11:48:37.308Z,100728.68
2018-09-08T11:51:04.283Z,100730.78
2018-09-08T11:53:31.285Z,100724.46
2018-09-08T11:55:58.264Z,100716.81
2018-09-08T11:58:25.243Z,100713.41
2018-09-08T12:00:52.163Z,100709.06
2018-09-08T12:03:19.137Z,100707.23
2018-09-08T12:05:46.068Z,100698.72
2018-09-08T12:08:12.950Z,100708.03
2018-09-08T12:10:39.988Z,100706.70
2018-09-08T12:13:07.160Z,100695.69
2018-09-08T12:15:34.136Z,100688.72
2018-09-08T12:18:01.089Z,100695.83
2018-09-08T12:20:28.046Z,100691.27
2018-09-08T12:22:55.012Z,100692.59
2018-09-08T12:25:21.910Z,100690.53
2018-09-08T12:27:48.867Z,100694.53
2018-09-08T12:30:15.855Z,100694.77
2018-09-08T12:32:42.833Z,100688.23
2018-09-08T12:35:10.115Z,100689.53
2018-09-08T12:37:37.106Z,100689.72
2018-09-08T12:40:04.016Z,100695.16
2018-09-08T12:42:31.003Z,100688.77
2018-09-08T12:45:00.760Z,100690.98
2018-09-08T12:47:27.756Z,100689.80
2018-09-08T12:49:54.660Z,100697.92
2018-09-08T12:52:21.653Z,100687.32
2018-09-08T12:54:48.891Z,100678.05
2018-09-08T12:57:15.871Z,100674.50
2018-09-08T12:59:42.845Z,100680.28
2018-09-08T13:02:09.766Z,100676.73
2018-09-08T13:04:37.685Z,100675.99
2018-09-08T13:07:04.628Z,100674.38
2018-09-08T13:09:31.598Z,100663.59
2018-09-08T13:11:58.569Z,100657.04
2018-09-08T13:14:25.472Z,100657.91
2018-09-08T13:16:52.452Z,100664.42
2018-09-08T13:19:19.428Z,100659.45
2018-09-08T13:21:46.363Z,100657.91
2018-09-08T13:24:13.300Z,100660.65
2018-09-08T13:26:40.276Z,100664.33
2018-09-08T13:29:07.419Z,100658.08
2018-09-08T13:31:34.399Z,100661.78
2018-09-08T13:34:01.355Z,100658.22
2018-09-08T13:36:28.335Z,100663.29
2018-09-08T13:38:55.275Z,100653.23
2018-09-08T13:41:22.251Z,100654.83
2018-09-08T13:43:49.191Z,100650.75
2018-09-08T13:46:16.160Z,100651.97
2018-09-08T13:48:43.123Z,100648.56
2018-09-08T13:51:10.097Z,100637.83
2018-09-08T13:53:37.047Z,100630.61
2018-09-08T13:56:04.039Z,100639.11
2018-09-08T13:58:31.164Z,100642.19
2018-09-08T14:00:58.835Z,100638.30
2018-09-08T14:03:25.821Z,100636.77
2018-09-08T14:05:52.751Z,100633.45
2018-09-08T14:08:20.738Z,100626.22
2018-09-08T14:10:49.255Z,100629.87
2018-09-08T14:13:19.215Z,100639.23
2018-09-08T14:15:46.207Z,100640.50
2018-09-08T14:18:13.171Z,100630.26
2018-09-08T14:20:40.170Z,100623.09
2018-09-08T14:23:08.195Z,100622.19
2018-09-08T14:25:35.165Z,100626.38
2018-09-08T14:28:02.148Z,100627.47
2018-09-08T14:30:29.084Z,100625.66
2018-09-08T14:32:56.037Z,100621.80
2018-09-08T14:35:24.041Z,100618.62
2018-09-08T14:37:52.767Z,100620.98
2018-09-08T14:40:20.659Z,100610.87
2018-09-08T14:42:47.677Z,100614.42
2018-09-08T14:45:14.634Z,100623.25
2018-09-08T14:47:41.633Z,100606.11
2018-09-08T14:50:09.232Z,100616.48
2018-09-08T14:52:36.207Z,100610.45
2018-09-08T14:55:03.168Z,100613.23
2018-09-08T14:57:30.148Z,100605.23
2018-09-08T14:59:57.051Z,100605.89
2018-09-08T15:02:24.015Z,100588.88
2018-09-08T15:04:51.074Z,100596.80
2018-09-08T15:07:17.923Z,100600.19
2018-09-08T15:09:44.884Z,100593.55
2018-09-08T15:12:11.867Z,100596.33
2018-09-08T15:14:39.716Z,100583.23
2018-09-08T15:17:06.663Z,100590.23
2018-09-08T15:19:34.347Z,100595.19
2018-09-08T15:22:02.236Z,100593.13
2018-09-08T15:24:29.205Z,100592.47
2018-09-08T15:26:59.234Z,100597.06
2018-09-08T15:29:32.238Z,100591.73
2018-09-08T15:31:59.177Z,100600.02
2018-09-08T15:34:26.120Z,100598.51
2018-09-08T15:36:53.160Z,100599.53
2018-09-08T15:39:20.801Z,100597.75
2018-09-08T15:41:47.792Z,100598.49
2018-09-08T15:44:14.848Z,100603.41
2018-09-08T15:46:42.953Z,100599.22
2018-09-08T15:49:10.808Z,100610.27
2018-09-08T15:51:37.868Z,100604.69
2018-09-08T15:54:04.852Z,100604.94
2018-09-08T15:56:31.826Z,100606.58
2018-09-08T15:58:58.802Z,100611.13
2018-09-08T16:01:25.761Z,100610.21
2018-09-08T16:03:53.319Z,100625.34
2018-09-08T16:06:20.313Z,100611.95
2018-09-08T16:08:55.946Z,100619.91
2018-09-08T16:11:25.871Z,100623.43
2018-09-08T16:13:55.849Z,100619.69
2018-09-08T16:16:22.875Z,100609.29
2018-09-08T16:18:49.838Z,100606.34
2018-09-08T16:21:16.800Z,100603.77
2018-09-08T16:23:43.748Z,100604.36
2018-09-08T16:26:10.763Z,100606.11
2018-09-08T16:28:37.738Z,100595.38
2018-09-08T16:31:04.755Z,100600.37
2018-09-08T16:33:31.759Z,100599.25
2018-09-08T16:35:58.756Z,100601.05
2018-09-08T16:38:25.721Z,100594.17
2018-09-08T16:40:52.648Z,100600.80
2018-09-08T16:43:19.744Z,100598.67
2018-09-08T16:45:46.644Z,100599.43
2018-09-08T16:48:14.283Z,100592.34
2018-09-08T16:50:41.271Z,100601.13
2018-09-08T16:53:08.281Z,100599.70
2018-09-08T16:55:35.200Z,100599.09
2018-09-08T16:58:02.250Z,100598.79
2018-09-08T17:00:29.124Z,100607.31
2018-09-08T17:02:56.087Z,100597.11
2018-09-08T17:05:23.159Z,100593.94
2018-09-08T17:07:53.053Z,100600.13
2018-09-08T17:10:20.835Z,100595.41
2018-09-08T17:12:47.810Z,100592.17
2018-09-08T17:15:15.771Z,100584.70
2018-09-08T17:17:44.399Z,100591.30
2018-09-08T17:20:11.328Z,100587.13
2018-09-08T17:22:39.838Z,100598.44
2018-09-08T17:25:06.791Z,100599.31
2018-09-08T17:27:33.735Z,100599.78
2018-09-08T17:30:00.663Z,100603.14
2018-09-08T17:32:27.728Z,100601.09
2018-09-08T17:34:54.808Z,100606.24
2018-09-08T17:37:21.872Z,100595.66
2018-09-08T17:39:49.874Z,100603.91
2018-09-08T17:42:16.933Z,100603.64
2018-09-08T17:44:46.868Z,100607.39
2018-09-08T17:47:13.874Z,100610.12
2018-09-08T17:49:40.855Z,100605.64
2018-09-08T17:52:07.874Z,100611.01
2018-09-08T17:54:34.789Z,100611.21
2018-09-08T17:57:01.764Z,100615.19
2018-09-08T17:59:28.711Z,100612.60
2018-09-08T18:01:56.551Z,100614.70
2018-09-08T18:04:23.497Z,100609.39
2018-09-08T18:06:51.292Z,100618.00
2018-09-08T18:09:18.271Z,100615.84
2018-09-08T18:11:45.253Z,100622.45
2018-09-08T18:14:12.235Z,100618.75
2018-09-08T18:16:39.108Z,100620.88
2018-09-08T18:19:06.260Z,100626.41
2018-09-08T18:21:33.260Z,100622.78
2018-09-08T18:24:01.229Z,100632.14
2018-09-08T18:26:28.348Z,100630.09
2018-09-08T18:28:55.342Z,100631.30
2018-09-08T18:31:22.320Z,100636.40
2018-09-08T18:33:49.322Z,100641.17
2018-09-08T18:36:16.216Z,100638.34
2018-09-08T18:38:43.159Z,100640.91
2018-09-08T18:41:10.140Z,100647.58
2018-09-08T18:43:45.271Z,100647.12
2018-09-08T18:46:13.159Z,100651.61
2018-09-08T18:48:41.136Z,100655.35
2018-09-08T18:51:08.180Z,100652.52
2018-09-08T18:53:35.168Z,100655.23
2018-09-08T18:56:02.126Z,100659.92
2018-09-08T18:58:29.081Z,100656.61
2018-09-08T19:00:56.024Z,100660.63
2018-09-08T19:03:23.049Z,100657.48
2018-09-08T19:05:49.948Z,100658.32
2018-09-08T19:08:16.916Z,100652.62
2018-09-08T19:10:43.839Z,100653.89
2018-09-08T19:13:11.837Z,100652.39
2018-09-08T19:15:39.788Z,100658.28
2018-09-08T19:18:06.834Z,100659.66
2018-09-08T19:20:35.687Z,100661.67
2018-09-08T19:23:02.603Z,100660.87
2018-09-08T19:25:30.315Z,100661.67
2018-09-08T19:27:57.323Z,100665.88
2018-09-08T19:30:24.250Z,100662.34
2018-09-08T19:32:51.151Z,100661.45
2018-09-08T19:35:39.300Z,100660.53
2018-09-08T19:38:06.441Z,100662.52
2018-09-08T19:40:39.984Z,100659.79
2018-09-08T19:43:07.163Z,100652.83
2018-09-08T19:45:34.535Z,100655.31
2018-09-08T19:48:07.023Z,100651.91
2018-09-08T19:50:34.179Z,100651.48
2018-09-08T19:53:07.895Z,100644.45
2018-09-08T19:55:34.912Z,100636.95
2018-09-08T19:58:07.672Z,100639.76
2018-09-08T20:00:34.676Z,100645.19
2018-09-08T20:03:01.587Z,100646.05
2018-09-08T20:05:31.924Z,100650.37
2018-09-08T20:07:58.875Z,100647.75
2018-09-08T20:10:25.948Z,100652.64
2018-09-08T20:12:53.079Z,100661.31
2018-09-08T20:15:19.957Z,100664.23
2018-09-08T20:17:46.900Z,100667.81
2018-09-08T20:20:13.839Z,100675.96
2018-09-08T20:22:40.927Z,100671.20
2018-09-08T20:25:07.890Z,100663.85
2018-09-08T20:27:34.856Z,100670.16
2018-09-08T20:30:01.812Z,100664.41
2018-09-08T20:32:28.767Z,100666.70
2018-09-08T20:34:55.726Z,100668.02
2018-09-08T20:37:22.763Z,100668.50
2018-09-08T20:39:50.433Z,100669.34
2018-09-08T20:42:18.452Z,100669.51
2018-09-08T20:44:45.487Z,100664.70
2018-09-08T20:47:12.723Z,100670.27
2018-09-08T20:49:39.740Z,100669.44
2018-09-08T20:52:06.723Z,100667.97
2018-09-08T20:54:33.632Z,100669.50
2018-09-08T20:57:00.602Z,100670.64
2018-09-08T20:59:28.563Z,100669.80
2018-09-08T21:01:55.607Z,100661.83
2018-09-08T21:04:22.588Z,100663.83
2018-09-08T21:06:49.545Z,100665.30
2018-09-08T21:09:16.510Z,100669.58
2018-09-08T21:11:44.540Z,100664.25
2018-09-08T21:14:11.648Z,100669.50
2018-09-08T21:16:38.599Z,100673.28
2018-09-08T21:19:06.580Z,100668.42
2018-09-08T21:21:34.464Z,100669.16
2018-09-08T21:24:01.396Z,100666.70
2018-09-08T21:26:28.403Z,100668.19
2018-09-08T21:28:55.340Z,100670.59
2018-09-08T21:31:22.287Z,100667.69
2018-09-08T21:33:49.272Z,100664.11
2018-09-08T21:36:16.216Z,100669.67
2018-09-08T21:38:43.167Z,100662.97
2018-09-08T21:41:10.125Z,100664.44
2018-09-08T21:43:37.129Z,100666.08
2018-09-08T21:46:04.036Z,100659.86
2018-09-08T21:48:30.987Z,100663.94
2018-09-08T21:50:57.972Z,100665.74
2018-09-08T21:53:24.934Z,100666.41
2018-09-08T21:55:51.834Z,100667.34
2018-09-08T21:58:18.840Z,100665.19
2018-09-08T22:00:51.503Z,100666.62
2018-09-08T22:03:18.861Z,100674.23
2018-09-08T22:05:45.838Z,100674.34
2018-09-08T22:08:12.772Z,100674.76
2018-09-08T22:10:39.746Z,100670.84
2018-09-08T22:13:06.707Z,100674.31
2018-09-08T22:15:34.483Z,100678.91
2018-09-08T22:18:01.439Z,100684.77
2018-09-08T22:20:28.407Z,100686.21
2018-09-08T22:22:55.343Z,100681.12
2018-09-08T22:25:22.308Z,100684.49
2018-09-08T22:27:49.308Z,100683.92
2018-09-08T22:30:16.299Z,100687.75
2018-09-08T22:32:43.206Z,100689.31
2018-09-08T22:35:10.164Z,100694.34
2018-09-08T22:37:40.063Z,100700.80
2018-09-08T22:40:06.932Z,100700.34
2018-09-08T22:42:33.860Z,100697.45
2018-09-08T22:45:00.844Z,100697.78
2018-09-08T22:47:27.823Z,100700.98
2018-09-08T22:49:54.755Z,100702.56
2018-09-08T22:52:21.707Z,100698.50
2018-09-08T22:54:48.663Z,100710.41
2018-09-08T22:57:15.623Z,100709.18
2018-09-08T22:59:42.624Z,100706.28
2018-09-08T23:02:09.552Z,100701.66
2018-09-08T23:04:36.491Z,100696.72
2018-09-08T23:07:03.452Z,100699.56
2018-09-08T23:09:30.407Z,100697.03
2018-09-08T23:11:57.358Z,100702.23
2018-09-08T23:14:24.326Z,100701.95
2018-09-08T23:16:51.287Z,100697.63
2018-09-08T23:19:18.235Z,100698.95
2018-09-08T23:21:45.364Z,100698.69
2018-09-08T23:24:14.123Z,100695.19
2018-09-08T23:26:41.031Z,100697.38
2018-09-08T23:29:07.983Z,100695.27
2018-09-08T23:31:34.872Z,100695.88
2018-09-08T23:34:01.836Z,100692.62
2018-09-08T23:36:28.783Z,100698.27
2018-09-08T23:38:55.740Z,100700.17
2018-09-08T23:41:22.696Z,100701.37
2018-09-08T23:43:49.791Z,100707.04
2018-09-08T23:46:16.718Z,100706.08
2018-09-08T23:48:44.703Z,100706.87
2018-09-08T23:51:13.719Z,100702.34
2018-09-08T23:53:40.671Z,100701.11
2018-09-08T23:56:07.631Z,100704.42
2018-09-08T23:58:35.624Z,100705.28
